Time;durP1;ratioP1;P1;durP2;ratioP2;P2;SDS_P1;SDS_P2;PMS_P1;PMS_P2;Temp;Humidity;BMP_temperature;BMP_pressure;BME280_temperature;BME280_humidity;BME280_pressure;Samples;Min_cycle;Max_cycle;Signal;HPM_P1;HPM_P2
2023/02/20 00:00:07;;;;;;;11.75;8.00;;;;;;;10.78;45.90;95256.41;5107577;27;20102;-79
2023/02/20 00:02:32;;;;;;;12.85;7.40;;;;;;;10.80;46.06;95264.22;5105959;28;20483;-78
2023/02/20 00:04:58;;;;;;;10.77;7.43;;;;;;;10.79;46.32;95265.41;5105829;28;20051;-78
2023/02/20 00:07:23;;;;;;;10.98;7.40;;;;;;;10.70;46.25;95255.00;5106461;28;20036;-77
2023/02/20 00:09:49;;;;;;;11.32;7.65;;;;;;;10.71;46.67;95259.31;5107673;28;20043;-79
2023/02/20 00:12:14;;;;;;;11.95;7.68;;;;;;;10.59;47.28;95258.00;5106211;28;20115;-78
2023/02/20 00:14:39;;;;;;;11.88;7.40;;;;;;;10.57;47.38;95256.91;5088498;28;20031;-81
2023/02/20 00:17:05;;;;;;;11.55;7.72;;;;;;;10.58;47.45;95253.72;5105522;28;20030;-79
2023/02/20 00:19:30;;;;;;;14.00;7.53;;;;;;;10.54;47.53;95253.03;5105011;28;20020;-79
2023/02/20 00:21:56;;;;;;;12.43;8.70;;;;;;;10.50;47.64;95238.59;5112902;28;20058;-77
2023/02/20 00:24:21;;;;;;;10.68;7.70;;;;;;;10.49;47.71;95253.53;5107263;28;20061;-79
2023/02/20 00:26:55;;;;;;;14.05;8.10;;;;;;;10.49;47.97;95256.28;5110906;28;20032;-80
2023/02/20 00:29:22;;;;;;;10.77;7.45;;;;;;;10.48;48.11;95245.72;5107937;28;20027;-78
2023/02/20 00:31:54;;;;;;;14.23;8.30;;;;;;;10.35;48.58;95243.66;5105477;28;20050;-78
2023/02/20 00:34:20;;;;;;;10.95;7.85;;;;;;;10.28;48.66;95241.06;5105612;28;20079;-79
2023/02/20 00:36:46;;;;;;;10.15;7.55;;;;;;;10.22;49.15;95233.75;5105480;28;20101;-78
2023/02/20 00:39:11;;;;;;;10.90;7.90;;;;;;;10.25;49.17;95241.13;5105141;28;20023;-78
2023/02/20 00:41:37;;;;;;;11.75;8.38;;;;;;;10.09;49.67;95230.88;5107164;28;20504;-78
2023/02/20 00:44:02;;;;;;;10.38;7.38;;;;;;;10.12;49.43;95235.50;5104886;28;20036;-78
2023/02/20 00:46:28;;;;;;;11.38;7.43;;;;;;;10.14;49.55;95252.34;5107140;28;20031;-78
2023/02/20 00:48:53;;;;;;;10.32;7.90;;;;;;;10.09;49.68;95269.31;5106692;28;20046;-79
2023/02/20 00:51:19;;;;;;;12.35;8.63;;;;;;;10.08;49.70;95270.53;5106848;28;20111;-77
2023/02/20 00:53:44;;;;;;;11.57;8.32;;;;;;;10.01;49.78;95270.69;5105293;28;20425;-79
2023/02/20 00:56:09;;;;;;;12.73;8.07;;;;;;;9.95;49.79;95278.66;5105975;28;20030;-78
2023/02/20 00:58:35;;;;;;;12.52;7.85;;;;;;;9.95;49.99;95283.38;5106774;28;20056;-77
2023/02/20 01:01:00;;;;;;;13.13;8.07;;;;;;;9.87;50.41;95290.22;5104409;28;20119;-79
2023/02/20 01:03:26;;;;;;;14.35;8.68;;;;;;;9.87;50.37;95291.00;5105304;28;20043;-78
2023/02/20 01:05:51;;;;;;;12.27;8.30;;;;;;;9.74;50.63;95285.34;5105266;28;20016;-79
2023/02/20 01:08:16;;;;;;;13.27;9.48;;;;;;;9.84;50.68;95292.59;5105273;28;20066;-77
2023/02/20 01:10:42;;;;;;;12.70;8.77;;;;;;;9.83;50.76;95291.06;5106134;28;20027;-78
2023/02/20 01:13:08;;;;;;;11.93;8.57;;;;;;;9.76;50.79;95279.44;5088149;28;20020;-77
2023/02/20 01:15:33;;;;;;;14.80;8.80;;;;;;;9.70;51.26;95295.63;5106406;28;20455;-78
2023/02/20 01:17:59;;;;;;;12.90;8.40;;;;;;;9.67;51.24;95290.97;5104400;28;20020;-77
2023/02/20 01:20:24;;;;;;;12.02;8.13;;;;;;;9.69;51.21;95290.56;5106866;28;20099;-77
2023/02/20 01:22:49;;;;;;;11.55;8.00;;;;;;;9.66;51.21;95294.94;5109921;28;20038;-76
2023/02/20 01:25:15;;;;;;;11.38;9.13;;;;;;;9.66;51.41;95302.38;5119962;28;20324;-77
2023/02/20 01:27:40;;;;;;;13.07;8.50;;;;;;;9.65;51.47;95315.34;5109971;28;20032;-77
2023/02/20 01:30:07;;;;;;;13.13;8.75;;;;;;;9.64;51.60;95318.50;5108103;28;20388;-78
2023/02/20 01:32:32;;;;;;;12.38;8.50;;;;;;;9.61;51.85;95309.13;5106380;28;20385;-77
2023/02/20 01:34:57;;;;;;;13.15;8.98;;;;;;;9.59;52.08;95311.53;5105723;28;20031;-78
2023/02/20 01:37:23;;;;;;;13.50;9.23;;;;;;;9.65;52.20;95320.84;5088008;28;20019;-78
2023/02/20 01:39:48;;;;;;;12.95;8.70;;;;;;;9.70;52.13;95319.56;5103600;28;20067;-78
2023/02/20 01:42:18;;;;;;;14.15;8.65;;;;;;;9.70;52.14;95316.81;5105339;28;20087;-79
2023/02/20 01:44:43;;;;;;;11.93;8.50;;;;;;;9.71;52.01;95318.38;5103910;28;20050;-80
2023/02/20 01:47:17;;;;;;;12.32;8.75;;;;;;;9.73;52.28;95326.94;5106054;27;20490;-79
2023/02/20 01:49:55;;;;;;;12.32;8.88;;;;;;;9.81;52.14;95323.66;5105880;28;20031;-79
2023/02/20 01:52:28;;;;;;;15.77;9.45;;;;;;;9.80;52.21;95332.28;5105062;28;20498;-78
2023/02/20 01:55:08;;;;;;;14.80;10.00;;;;;;;9.87;52.26;95342.41;5104580;28;20035;-77
2023/02/20 01:57:34;;;;;;;14.38;8.65;;;;;;;9.85;52.51;95348.28;5103288;28;20060;-78
2023/02/20 02:00:06;;;;;;;13.95;9.02;;;;;;;9.87;52.62;95342.41;5104456;28;20077;-78
2023/02/20 02:02:34;;;;;;;16.30;9.43;;;;;;;9.83;52.82;95345.19;5103795;28;20409;-79
2023/02/20 02:05:00;;;;;;;14.75;9.35;;;;;;;9.73;53.39;95335.19;5103784;28;20027;-78
2023/02/20 02:07:28;;;;;;;11.73;8.35;;;;;;;9.60;53.69;95328.78;5104223;28;20030;-78
2023/02/20 02:09:59;;;;;;;11.88;8.10;;;;;;;9.59;53.41;95352.72;5102819;28;20028;-79
2023/02/20 02:12:24;;;;;;;9.80;7.22;;;;;;;9.56;53.12;95340.59;5104124;28;20062;-81
2023/02/20 02:14:49;;;;;;;7.82;5.63;;;;;;;9.45;53.18;95331.78;5103345;28;20024;-78
2023/02/20 02:17:55;;;;;;;8.55;6.03;;;;;;;9.41;53.12;95339.31;5105893;28;20058;-79
2023/02/20 02:20:53;;;;;;;10.70;5.18;;;;;;;9.36;53.06;95336.28;5090053;28;20031;-79
2023/02/20 02:23:37;;;;;;;5.95;3.70;;;;;;;9.18;53.05;95334.63;5103535;28;20023;-77
2023/02/20 02:27:00;;;;;;;5.28;3.38;;;;;;;9.04;53.42;95343.06;5105899;28;20038;-79
2023/02/20 02:29:44;;;;;;;6.68;3.45;;;;;;;8.86;53.81;95356.28;5062276;28;20028;-78
2023/02/20 02:32:28;;;;;;;4.53;3.10;;;;;;;8.77;54.28;95362.28;5045409;28;20024;-79
2023/02/20 02:35:07;;;;;;;6.95;3.63;;;;;;;8.64;54.68;95359.34;5068440;28;20040;-77
2023/02/20 02:37:38;;;;;;;5.22;4.00;;;;;;;8.60;55.06;95355.91;5062648;28;20025;-78
2023/02/20 02:40:43;;;;;;;5.97;3.58;;;;;;;8.61;55.31;95348.44;5061585;28;20540;-78
2023/02/20 02:43:11;;;;;;;;;;;;;;;8.60;55.38;95358.63;5056428;28;20048;-78
2023/02/20 02:45:53;;;;;;;5.65;3.75;;;;;;;8.52;55.64;95360.69;5065912;28;19935;-79
2023/02/20 02:49:00;;;;;;;5.50;3.58;;;;;;;8.52;55.71;95366.16;5065655;28;20059;-78
2023/02/20 02:51:29;;;;;;;5.35;3.30;;;;;;;8.52;55.77;95374.38;5006828;28;20506;-79
2023/02/20 02:54:27;;;;;;;7.15;3.63;;;;;;;8.47;55.74;95368.59;5005520;28;20030;-79
2023/02/20 02:57:18;;;;;;;5.57;3.38;;;;;;;8.45;55.60;95355.31;4994773;28;20107;-79
2023/02/20 02:59:45;;;;;;;5.90;3.20;;;;;;;8.40;55.89;95358.50;5007432;28;20127;-77
2023/02/20 03:02:13;;;;;;;4.65;3.05;;;;;;;8.34;56.35;95376.56;5065269;28;20510;-77
2023/02/20 03:04:40;;;;;;;4.72;3.13;;;;;;;8.37;56.14;95384.00;5032474;28;20503;-78
2023/02/20 03:07:14;;;;;;;4.32;2.92;;;;;;;8.38;56.05;95369.13;5048525;28;20156;-77
2023/02/20 03:10:02;;;;;;;4.15;2.63;;;;;;;8.38;56.19;95382.03;5048685;28;20024;-78
2023/02/20 03:12:28;;;;;;;4.22;3.15;;;;;;;8.38;55.92;95382.03;5049265;28;20499;-79
2023/02/20 03:15:32;;;;;;;4.40;2.63;;;;;;;8.31;56.03;95379.34;5051630;28;20032;-78
2023/02/20 03:18:31;;;;;;;4.75;3.15;;;;;;;8.24;55.89;95369.25;5050389;28;20029;-77
2023/02/20 03:21:02;;;;;;;3.78;2.53;;;;;;;8.15;55.60;95382.69;5065424;28;20036;-78
2023/02/20 03:23:33;;;;;;;4.18;2.58;;;;;;;8.12;55.68;95387.00;5047917;28;20036;-78
2023/02/20 03:26:02;;;;;;;5.97;3.17;;;;;;;8.09;55.53;95382.38;5073527;28;20038;-77
2023/02/20 03:28:31;;;;;;;4.80;2.80;;;;;;;8.14;55.34;95403.81;5089522;28;20119;-79
2023/02/20 03:31:05;;;;;;;4.45;3.00;;;;;;;8.18;55.49;95404.53;5107078;28;20042;-78
2023/02/20 03:44:57;;;;;;;7.28;2.83;;;;;;;8.10;55.18;95402.31;5121062;28;20079;-78
2023/02/20 03:47:25;;;;;;;4.25;2.45;;;;;;;8.09;54.91;95398.81;5127448;28;20230;-79
2023/02/20 03:49:52;;;;;;;3.85;2.63;;;;;;;8.13;54.91;95405.00;5106542;28;20015;-78
2023/02/20 03:52:18;;;;;;;4.30;2.70;;;;;;;8.04;55.26;95406.69;5090208;28;20085;-78
2023/02/20 03:54:43;;;;;;;3.05;2.42;;;;;;;8.15;54.88;95421.03;5106191;28;20058;-77
2023/02/20 03:57:12;;;;;;;3.47;2.33;;;;;;;8.11;54.71;95440.22;5106459;28;20030;-78
2023/02/20 03:59:49;;;;;;;4.05;2.40;;;;;;;8.10;54.84;95443.38;5106421;28;20110;-78
2023/02/20 04:02:29;;;;;;;3.72;2.83;;;;;;;8.09;54.96;95447.31;5105439;28;20028;-79
2023/02/20 04:04:57;;;;;;;4.03;2.60;;;;;;;8.13;54.68;95446.06;5106709;28;20028;-77
2023/02/20 04:07:34;;;;;;;3.60;2.13;;;;;;;8.21;54.51;95442.09;5107032;28;20107;-77
2023/02/20 04:10:02;;;;;;;4.00;2.50;;;;;;;8.23;54.33;95447.91;5091831;28;20055;-80
2023/02/20 04:12:32;;;;;;;3.88;2.40;;;;;;;8.30;54.17;95446.28;5107315;28;20028;-77
2023/02/20 04:14:58;;;;;;;3.90;2.80;;;;;;;8.35;54.01;95434.88;5106719;28;20066;-78
2023/02/20 04:17:25;;;;;;;4.10;2.70;;;;;;;8.40;53.81;95428.97;5089360;28;20701;-77
2023/02/20 04:19:51;;;;;;;4.00;2.47;;;;;;;8.45;53.85;95423.03;5104903;28;20163;-77
2023/02/20 04:22:25;;;;;;;4.57;2.92;;;;;;;8.42;54.08;95421.09;5107951;27;20111;-76
2023/02/20 04:25:04;;;;;;;4.85;3.05;;;;;;;8.33;54.57;95432.56;5105676;28;20409;-78
2023/02/20 04:27:31;;;;;;;3.40;2.45;;;;;;;8.27;54.78;95458.06;5088397;28;20023;-77
2023/02/20 04:29:56;;;;;;;4.97;3.20;;;;;;;8.26;54.73;95454.56;5105801;28;20459;-78
2023/02/20 04:32:21;;;;;;;4.78;3.25;;;;;;;8.29;55.09;95470.16;5104772;28;20028;-78
2023/02/20 04:34:47;;;;;;;4.55;2.92;;;;;;;8.32;54.75;95468.56;5105757;28;20448;-76
2023/02/20 04:37:15;;;;;;;5.15;2.67;;;;;;;8.34;54.53;95471.69;5106741;28;20031;-77
2023/02/20 04:39:40;;;;;;;3.28;2.72;;;;;;;8.20;55.00;95458.91;5088612;28;20031;-76
2023/02/20 04:42:06;;;;;;;4.03;2.83;;;;;;;8.19;55.02;95460.88;5104859;28;20028;-76
2023/02/20 04:44:32;;;;;;;4.82;3.00;;;;;;;8.15;55.00;95462.13;5105476;28;20493;-76
2023/02/20 04:46:59;;;;;;;4.50;2.70;;;;;;;8.04;54.95;95455.97;5089998;28;20028;-76
2023/02/20 04:49:24;;;;;;;4.22;3.00;;;;;;;7.99;54.58;95459.94;5104793;28;20020;-76
2023/02/20 04:51:49;;;;;;;3.42;2.50;;;;;;;7.99;54.20;95452.50;5105735;28;20027;-76
2023/02/20 04:54:15;;;;;;;3.38;2.50;;;;;;;7.94;54.03;95458.41;5105741;28;20140;-77
2023/02/20 04:56:40;;;;;;;3.08;2.60;;;;;;;7.95;53.90;95462.69;5105115;28;20027;-78
2023/02/20 04:59:05;;;;;;;3.17;2.20;;;;;;;7.93;53.25;95464.28;5104305;28;20214;-76
2023/02/20 05:01:31;;;;;;;3.60;2.45;;;;;;;7.91;52.94;95461.16;5105216;28;20036;-77
2023/02/20 05:03:56;;;;;;;3.88;2.50;;;;;;;7.87;52.68;95468.66;5104958;28;20027;-77
2023/02/20 05:06:22;;;;;;;3.83;2.72;;;;;;;7.81;52.14;95471.06;5108109;28;20365;-77
2023/02/20 05:08:47;;;;;;;5.13;2.30;;;;;;;7.82;52.10;95486.28;5107136;28;20043;-77
2023/02/20 05:11:13;;;;;;;6.45;2.50;;;;;;;7.83;51.52;95484.34;5105684;28;20032;-77
2023/02/20 05:13:38;;;;;;;3.15;1.90;;;;;;;7.79;50.91;95478.88;5106804;27;20031;-77
2023/02/20 05:16:04;;;;;;;3.83;2.22;;;;;;;7.76;50.84;95487.91;5103642;28;20486;-76
2023/02/20 05:18:30;;;;;;;3.75;2.05;;;;;;;7.74;50.60;95495.75;5088336;28;20035;-78
2023/02/20 05:23:40;;;;;;;4.90;2.47;;;;;;;7.79;50.25;95494.53;5104508;28;20457;-76
2023/02/20 05:26:10;;;;;;;5.07;2.40;;;;;;;7.78;50.14;95495.72;5105287;28;20028;-77
2023/02/20 05:28:35;;;;;;;5.97;2.50;;;;;;;7.64;50.52;95502.88;5069985;28;20039;-76
2023/02/20 05:31:01;;;;;;;4.10;2.92;;;;;;;7.58;50.99;95499.03;5106375;27;20031;-76
2023/02/20 05:33:26;;;;;;;7.15;2.88;;;;;;;7.65;50.94;95512.63;5103998;28;20482;-77
2023/02/20 05:35:51;;;;;;;4.07;2.63;;;;;;;7.64;50.78;95515.78;5104909;28;20039;-77
2023/02/20 05:38:17;;;;;;;7.25;3.08;;;;;;;7.62;51.23;95515.41;5087532;28;20035;-78
2023/02/20 05:40:43;;;;;;;5.82;2.97;;;;;;;7.65;51.33;95531.00;5087230;28;20024;-77
2023/02/20 05:43:08;;;;;;;5.15;3.90;;;;;;;7.54;52.06;95525.63;5104816;28;20535;-78
2023/02/20 05:45:33;;;;;;;5.70;4.45;;;;;;;7.56;52.74;95523.25;5103785;28;20099;-79
2023/02/20 05:47:59;;;;;;;6.55;4.93;;;;;;;7.59;52.70;95527.94;5104524;28;20024;-77
2023/02/20 05:50:24;;;;;;;6.55;4.47;;;;;;;7.62;52.69;95527.13;5104034;28;20363;-79
2023/02/20 05:52:50;;;;;;;6.35;5.20;;;;;;;7.59;52.57;95521.69;5109823;28;20035;-78
2023/02/20 05:55:15;;;;;;;6.30;4.93;;;;;;;7.60;52.76;95520.50;5105561;28;20115;-79
2023/02/20 05:57:41;;;;;;;6.32;4.78;;;;;;;7.67;52.57;95534.91;5087666;28;20114;-79
2023/02/20 06:00:07;;;;;;;7.13;5.05;;;;;;;7.70;52.31;95534.09;5087766;28;20020;-77
2023/02/20 06:02:33;;;;;;;5.47;4.97;;;;;;;7.79;52.21;95543.78;5107222;28;20035;-78
2023/02/20 06:04:58;;;;;;;6.88;4.25;;;;;;;7.85;51.92;95539.44;5088433;28;20023;-78
2023/02/20 06:07:24;;;;;;;5.53;4.40;;;;;;;7.91;51.43;95538.63;5107431;28;20826;-77
2023/02/20 06:09:49;;;;;;;6.75;4.70;;;;;;;8.06;51.12;95549.44;5110332;28;20107;-78
2023/02/20 06:12:14;;;;;;;6.22;4.65;;;;;;;8.13;50.25;95560.31;5086809;28;20437;-76
2023/02/20 06:14:40;;;;;;;4.75;3.88;;;;;;;8.16;49.66;95554.81;5106462;28;20027;-79
2023/02/20 06:17:05;;;;;;;5.97;3.95;;;;;;;8.24;48.92;95556.28;5104482;28;20179;-79
2023/02/20 06:19:31;;;;;;;5.15;3.60;;;;;;;8.37;48.53;95564.00;5104405;28;20031;-79
2023/02/20 06:22:00;;;;;;;5.97;3.50;;;;;;;8.38;48.00;95574.59;5087949;28;20472;-78
2023/02/20 06:24:25;;;;;;;9.52;3.97;;;;;;;8.51;47.98;95552.91;5104710;28;20039;-79
2023/02/20 06:26:52;;;;;;;6.25;3.80;;;;;;;8.52;47.74;95563.47;5105517;28;20320;-78
2023/02/20 06:29:18;;;;;;;5.68;4.20;;;;;;;8.69;47.52;95563.69;5103313;28;20031;-78
2023/02/20 06:31:43;;;;;;;5.75;4.10;;;;;;;8.82;47.13;95567.44;5104427;28;20703;-79
2023/02/20 06:34:09;;;;;;;4.53;3.65;;;;;;;8.84;46.91;95567.81;5086678;28;20072;-78
2023/02/20 06:36:37;;;;;;;5.88;3.65;;;;;;;8.93;46.96;95581.78;5103939;28;20027;-78
2023/02/20 06:39:04;;;;;;;5.40;3.22;;;;;;;8.96;46.98;95567.28;5086938;28;20027;-79
2023/02/20 06:41:29;;;;;;;4.65;4.00;;;;;;;9.01;47.13;95577.03;5086683;28;20028;-79
2023/02/20 06:43:55;;;;;;;4.05;3.22;;;;;;;9.04;46.78;95565.22;5105264;28;20551;-77
2023/02/20 06:46:23;;;;;;;5.00;3.38;;;;;;;9.02;46.58;95565.63;5102966;28;20040;-78
2023/02/20 06:48:51;;;;;;;4.90;3.22;;;;;;;8.96;46.14;95574.72;5103934;28;20066;-76
2023/02/20 06:51:26;;;;;;;4.88;3.33;;;;;;;8.94;45.73;95579.81;5086367;28;20054;-77
2023/02/20 06:53:51;;;;;;;6.53;3.90;;;;;;;8.95;45.58;95595.13;5087105;28;20119;-78
2023/02/20 06:56:19;;;;;;;5.97;4.88;;;;;;;8.91;45.67;95586.16;5106832;28;20111;-77
2023/02/20 06:58:51;;;;;;;6.53;4.35;;;;;;;8.92;45.57;95582.22;5112789;28;20027;-77
2023/02/20 07:01:17;;;;;;;4.85;3.80;;;;;;;8.90;45.55;95590.84;5104978;28;20027;-77
2023/02/20 07:03:47;;;;;;;5.10;4.05;;;;;;;8.83;45.65;95590.94;5103079;28;20106;-77
2023/02/20 07:06:13;;;;;;;5.13;3.85;;;;;;;8.83;45.15;95606.59;5088147;28;20019;-77
2023/02/20 07:08:38;;;;;;;7.75;4.20;;;;;;;8.90;45.11;95590.09;5085735;28;20111;-77
2023/02/20 07:11:04;;;;;;;4.97;4.28;;;;;;;8.94;44.93;95591.56;5103381;28;20413;-79
2023/02/20 07:13:29;;;;;;;3.53;2.90;;;;;;;8.98;44.46;95595.06;5105430;28;20019;-78
2023/02/20 07:15:54;;;;;;;5.22;3.45;;;;;;;8.99;44.14;95606.78;5104422;28;20093;-79
2023/02/20 07:18:23;;;;;;;5.50;3.33;;;;;;;9.16;43.97;95600.31;5103766;28;20038;-77
2023/02/20 07:20:50;;;;;;;4.57;3.17;;;;;;;9.15;43.40;95609.75;5102470;28;20084;-78
2023/02/20 07:23:16;;;;;;;3.55;2.63;;;;;;;9.23;43.10;95624.13;5104176;28;20161;-78
2023/02/20 07:25:41;;;;;;;4.40;2.55;;;;;;;9.07;42.87;95619.25;5104654;28;20102;-77
2023/02/20 07:28:07;;;;;;;5.35;2.50;;;;;;;9.07;42.49;95605.53;5087174;28;20042;-79
2023/02/20 07:30:33;;;;;;;7.90;3.58;;;;;;;9.01;42.92;95601.69;5108454;28;20028;-77
2023/02/20 07:32:58;;;;;;;11.52;3.03;;;;;;;9.01;42.87;95620.91;5106618;28;20393;-77
2023/02/20 07:35:24;;;;;;;4.75;2.90;;;;;;;9.05;42.78;95611.41;5108995;28;20027;-79
2023/02/20 07:37:49;;;;;;;3.70;2.70;;;;;;;9.13;42.34;95608.59;5088837;28;20409;-78
2023/02/20 07:40:14;;;;;;;5.15;2.58;;;;;;;9.19;42.34;95605.00;5107171;28;20103;-76
2023/02/20 07:42:40;;;;;;;3.97;2.75;;;;;;;9.22;41.21;95601.41;5106978;28;20047;-79
2023/02/20 07:45:05;;;;;;;4.68;1.70;;;;;;;9.22;40.73;95606.91;5106968;28;20102;-78
2023/02/20 07:47:31;;;;;;;3.55;2.22;;;;;;;9.19;41.25;95585.78;5107617;28;20170;-77
2023/02/20 07:49:56;;;;;;;3.38;2.00;;;;;;;9.22;41.62;95606.91;5108028;27;20111;-77
2023/02/20 07:52:22;;;;;;;2.45;1.85;;;;;;;9.23;41.46;95605.72;5106894;28;20769;-78
2023/02/20 07:54:47;;;;;;;3.13;1.90;;;;;;;9.23;41.34;95602.19;5110937;28;20414;-80
2023/02/20 07:57:14;;;;;;;2.38;1.88;;;;;;;9.36;41.10;95591.47;5090226;28;20060;-79
2023/02/20 07:59:40;;;;;;;2.95;1.80;;;;;;;9.36;40.52;95605.19;5089053;28;20039;-77
2023/02/20 08:02:05;;;;;;;3.72;1.83;;;;;;;9.42;40.76;95611.75;5110463;28;20028;-76
2023/02/20 08:04:31;;;;;;;3.28;1.80;;;;;;;9.54;40.16;95613.94;5111028;28;20024;-78
2023/02/20 08:06:57;;;;;;;2.90;1.80;;;;;;;9.68;39.57;95605.47;5107767;28;20138;-79
2023/02/20 08:09:22;;;;;;;4.72;1.50;;;;;;;9.91;39.18;95601.22;5108282;28;20096;-78
2023/02/20 08:11:49;;;;;;;2.53;1.88;;;;;;;10.21;38.42;95598.41;5106509;28;20032;-79
2023/02/20 08:14:14;;;;;;;4.55;1.10;;;;;;;10.49;37.72;95605.38;5106851;28;20032;-79
2023/02/20 08:16:40;;;;;;;1.80;1.00;;;;;;;10.75;37.04;95600.22;5106904;28;20035;-79
2023/02/20 08:19:05;;;;;;;3.15;1.10;;;;;;;11.06;36.39;95625.53;5107777;28;20026;-77
2023/02/20 08:21:31;;;;;;;3.17;1.13;;;;;;;11.20;36.11;95610.72;5108891;28;20080;-78
2023/02/20 08:23:56;;;;;;;1.45;0.90;;;;;;;11.36;35.87;95622.59;5108441;28;20269;-78
2023/02/20 08:26:22;;;;;;;1.73;0.88;;;;;;;11.53;35.12;95606.88;5107468;28;20498;-78
2023/02/20 08:28:48;;;;;;;7.47;1.17;;;;;;;11.76;34.50;95624.50;5107581;28;20583;-78
2023/02/20 08:31:14;;;;;;;3.53;1.20;;;;;;;11.99;34.11;95604.31;5106354;28;20031;-79
2023/02/20 08:33:39;;;;;;;5.53;2.00;;;;;;;12.09;33.90;95608.78;5105577;28;20036;-78
2023/02/20 08:36:05;;;;;;;5.35;1.38;;;;;;;12.21;33.52;95616.34;5107527;28;20026;-76
2023/02/20 08:38:33;;;;;;;4.47;1.00;;;;;;;12.26;33.65;95615.06;5106780;28;20478;-76
2023/02/20 08:41:03;;;;;;;2.20;0.77;;;;;;;12.36;33.51;95628.59;5105036;28;20028;-78
2023/02/20 08:43:28;;;;;;;5.35;0.90;;;;;;;12.45;33.22;95603.19;5107562;28;20040;-77
2023/02/20 08:45:54;;;;;;;4.22;1.00;;;;;;;12.45;32.67;95595.69;5106048;28;20129;-78
2023/02/20 08:48:20;;;;;;;3.63;1.08;;;;;;;12.57;32.61;95613.50;5106103;28;20027;-78
2023/02/20 08:50:46;;;;;;;5.65;0.80;;;;;;;12.52;32.67;95616.78;5110032;28;20153;-76
2023/02/20 08:53:12;;;;;;;2.05;0.70;;;;;;;12.68;32.50;95558.06;5106203;28;20035;-77
2023/02/20 08:55:38;;;;;;;1.98;0.68;;;;;;;12.74;32.07;95600.44;5106571;28;20027;-77
2023/02/20 08:58:03;;;;;;;3.00;0.80;;;;;;;12.63;31.82;95581.44;5106954;28;20043;-77
2023/02/20 09:00:29;;;;;;;8.55;1.25;;;;;;;12.64;32.19;95605.03;5104407;28;20023;-78
2023/02/20 09:02:54;;;;;;;1.27;0.80;;;;;;;12.86;31.35;95571.38;5107484;28;20024;-77
2023/02/20 09:05:20;;;;;;;7.75;0.80;;;;;;;13.16;31.21;95573.66;5105229;28;20023;-78
2023/02/20 09:07:45;;;;;;;3.13;0.98;;;;;;;13.34;30.75;95588.97;5107645;28;20507;-79
2023/02/20 09:10:12;;;;;;;4.40;0.85;;;;;;;13.52;30.42;95578.91;5111979;28;20626;-78
2023/02/20 09:12:41;;;;;;;1.80;1.20;;;;;;;13.59;30.29;95574.41;5088263;28;20451;-79
2023/02/20 09:15:08;;;;;;;2.28;0.80;;;;;;;13.97;29.70;95599.28;5107023;28;20555;-77
2023/02/20 09:17:34;;;;;;;2.78;0.85;;;;;;;14.14;29.22;95578.59;5087506;28;20577;-77
2023/02/20 09:19:59;;;;;;;1.52;0.90;;;;;;;14.18;29.23;95578.47;5087891;28;20111;-78
2023/02/20 09:22:25;;;;;;;4.93;0.68;;;;;;;14.25;28.88;95579.00;5104642;28;20031;-79
2023/02/20 09:24:52;;;;;;;2.28;0.88;;;;;;;14.73;28.73;95584.56;5105337;28;20024;-78
2023/02/20 09:27:17;;;;;;;0.85;0.60;;;;;;;15.00;28.47;95576.47;5105339;28;20027;-79
2023/02/20 09:29:43;;;;;;;1.00;0.63;;;;;;;14.90;28.71;95579.63;5104323;28;20121;-78
2023/02/20 09:32:09;;;;;;;9.88;1.30;;;;;;;14.79;28.90;95586.28;5104876;28;20464;-79
2023/02/20 09:34:34;;;;;;;3.55;1.13;;;;;;;15.06;28.40;95569.13;5105472;28;20027;-79
2023/02/20 09:37:00;;;;;;;1.83;0.80;;;;;;;14.68;29.36;95583.16;5106117;28;20027;-79
2023/02/20 09:39:25;;;;;;;3.80;0.85;;;;;;;15.54;28.58;95580.03;5103862;28;20023;-77
2023/02/20 09:42:04;;;;;;;2.80;1.00;;;;;;;16.13;27.50;95590.03;5105241;28;20039;-79
2023/02/20 09:44:38;;;;;;;2.03;0.70;;;;;;;16.19;27.28;95604.06;5107203;28;20046;-79
2023/02/20 09:47:32;;;;;;;3.05;0.70;;;;;;;17.21;25.89;95601.00;5106175;28;20118;-78
2023/02/20 09:50:02;;;;;;;10.63;1.20;;;;;;;17.18;25.46;95576.13;5091113;27;20439;-78
2023/02/20 09:52:28;;;;;;;3.35;1.05;;;;;;;17.13;25.05;95596.97;5104182;28;20079;-78
2023/02/20 09:55:03;;;;;;;3.72;1.10;;;;;;;17.67;24.72;95586.25;5105237;28;20500;-78
2023/02/20 09:57:31;;;;;;;7.57;1.05;;;;;;;17.54;24.30;95583.63;5088569;28;20031;-79
2023/02/20 10:00:09;;;;;;;3.70;1.70;;;;;;;18.37;23.35;95588.91;5105481;28;20102;-78
2023/02/20 10:02:39;;;;;;;2.83;1.02;;;;;;;19.85;21.23;95592.84;5104897;28;20034;-79
2023/02/20 10:05:19;;;;;;;3.28;1.27;;;;;;;20.05;20.77;95598.47;5105072;28;20043;-78
2023/02/20 10:07:45;;;;;;;6.80;1.95;;;;;;;21.37;19.54;95592.91;5104855;28;20020;-79
2023/02/20 10:10:21;;;;;;;5.50;1.52;;;;;;;22.41;18.23;95587.97;5108604;28;20031;-79
2023/02/20 10:12:51;;;;;;;3.63;1.10;;;;;;;22.46;17.83;95594.88;5088442;28;20031;-77
2023/02/20 10:15:22;;;;;;;2.95;1.00;;;;;;;22.51;18.08;95588.53;5115151;28;20031;-80
2023/02/20 10:18:31;;;;;;;3.05;1.15;;;;;;;23.14;16.79;95587.59;5105704;28;20062;-78
2023/02/20 10:21:13;;;;;;;3.45;0.88;;;;;;;24.44;16.18;95578.84;5059736;28;20044;-79
2023/02/20 10:23:47;;;;;;;3.42;1.50;;;;;;;25.68;14.87;95605.22;5087798;28;20039;-79
2023/02/20 10:26:26;;;;;;;2.30;0.88;;;;;;;24.92;15.52;95580.50;5104492;28;20023;-79
2023/02/20 10:28:51;;;;;;;1.80;0.90;;;;;;;26.27;14.43;95585.38;5104516;28;20031;-79
2023/02/20 10:31:38;;;;;;;3.88;1.10;;;;;;;24.99;15.22;95573.56;5086303;28;20020;-79
2023/02/20 10:34:15;;;;;;;3.47;1.13;;;;;;;24.87;15.24;95570.03;5108811;28;20035;-79
2023/02/20 10:37:30;;;;;;;1.20;0.73;;;;;;;26.00;14.68;95573.81;5105823;28;20433;-78
2023/02/20 10:40:02;;;;;;;2.13;0.90;;;;;;;27.08;13.74;95563.03;5100681;28;20039;-79
2023/02/20 10:42:37;;;;;;;6.57;1.17;;;;;;;26.82;14.25;95555.84;5108391;28;20356;-79
2023/02/20 10:45:29;;;;;;;1.70;1.20;;;;;;;27.61;13.20;95552.06;5106113;28;20035;-78
2023/02/20 10:48:04;;;;;;;1.95;0.98;;;;;;;27.94;12.83;95548.75;5105009;28;20041;-80
2023/02/20 10:50:45;;;;;;;1.70;1.08;;;;;;;27.51;13.03;95518.56;5105925;28;20592;-78
2023/02/20 10:53:16;;;;;;;6.43;1.80;;;;;;;26.88;13.68;95550.16;5086488;28;20027;-80
2023/02/20 10:55:53;;;;;;;1.70;0.98;;;;;;;26.98;13.62;95529.50;5105715;28;20458;-79
2023/02/20 10:58:24;;;;;;;2.38;1.00;;;;;;;26.33;14.23;95541.75;5087122;28;20607;-78
2023/02/20 11:01:00;;;;;;;4.63;1.23;;;;;;;26.48;14.12;95542.13;5103426;28;20027;-78
2023/02/20 11:03:44;;;;;;;3.55;1.00;;;;;;;28.12;13.11;95550.00;5105375;28;20175;-80
2023/02/20 11:06:14;;;;;;;1.90;1.02;;;;;;;28.27;12.76;95564.38;5108878;28;20023;-79
2023/02/20 11:08:39;;;;;;;2.20;1.02;;;;;;;27.84;13.02;95556.09;5107760;28;20034;-79
2023/02/20 11:11:20;;;;;;;1.85;0.85;;;;;;;28.73;12.82;95545.34;5109497;28;20027;-78
2023/02/20 11:13:45;;;;;;;2.95;0.80;;;;;;;27.04;13.63;95554.06;5107482;28;20028;-78
2023/02/20 11:16:20;;;;;;;2.00;1.00;;;;;;;25.73;14.84;95552.97;5107953;28;20076;-79
2023/02/20 11:18:47;;;;;;;2.25;0.88;;;;;;;26.36;14.30;95548.38;5110200;28;20023;-79
2023/02/20 11:21:33;;;;;;;2.22;1.38;;;;;;;27.68;13.34;95551.44;5116366;28;20019;-77
2023/02/20 11:24:17;;;;;;;4.25;1.50;;;;;;;27.30;13.31;95561.97;5091517;28;20024;-78
2023/02/20 11:26:42;;;;;;;3.00;0.80;;;;;;;27.69;13.39;95564.25;5108219;27;20406;-79
2023/02/20 11:29:15;;;;;;;3.45;1.88;;;;;;;27.73;13.10;95553.44;5108779;28;20019;-79
2023/02/20 11:31:42;;;;;;;1.60;1.02;;;;;;;27.59;13.28;95551.84;5106753;28;20023;-77
2023/02/20 11:34:15;;;;;;;5.97;1.58;;;;;;;27.69;13.33;95548.09;5107926;28;20031;-78
2023/02/20 11:37:04;;;;;;;3.45;2.03;;;;;;;28.98;12.46;95553.63;5110780;28;20486;-79
2023/02/20 11:39:30;;;;;;;3.63;1.17;;;;;;;27.94;13.18;95554.41;5106679;28;20110;-79
2023/02/20 11:42:17;;;;;;;2.50;1.10;;;;;;;28.01;12.96;95559.41;5107808;28;20098;-79
2023/02/20 11:44:43;;;;;;;2.72;1.65;;;;;;;28.15;12.66;95553.78;5106654;28;20070;-78
2023/02/20 11:47:23;;;;;;;3.80;0.90;;;;;;;28.10;12.80;95566.75;5107149;28;20056;-79
2023/02/20 11:49:49;;;;;;;2.72;1.00;;;;;;;27.91;13.01;95557.53;5107555;28;20027;-78
2023/02/20 11:52:23;;;;;;;3.38;1.27;;;;;;;28.30;12.84;95551.22;5106606;28;20032;-78
2023/02/20 11:55:08;;;;;;;1.55;0.60;;;;;;;28.37;12.69;95544.19;5108726;28;20073;-78
2023/02/20 11:57:41;;;;;;;3.20;0.63;;;;;;;27.59;13.39;95541.31;5106829;28;20022;-78
2023/02/20 12:00:09;;;;;;;0.95;0.80;;;;;;;27.34;13.33;95532.16;5105904;28;20036;-78
2023/02/20 12:02:34;;;;;;;1.13;0.63;;;;;;;26.81;13.91;95537.41;5108011;28;20053;-78